Lanesville, Illinois
Current Conditions -  °F | °C
As of 6:52 PM on Tuesday 21 Oct 2014 (Local Time) from KSPI Reporting Station
Clear Clear  
Wind Chill: 50°   Ceiling: Unl
Heat Index: 50°   Visibility: 10mi
Dew Point: 40°   Wind: 5mph
Humidity: 68%   Direction: 10°N
Pressure: 30.17"   Gusts: NA
Location:  39.8448°N, 89.3474°W
Report Text: KSPI 212352Z 01004KT 10SM CLR 10/04 A3017 RMK AO2 SLP219 T01000044 10172 20100 53009
Loading
Personal Weather Stations






























Interactive Weather Map New forecast layout! Learn more

10-Day Weather Forecast

Advertisements
Track Severe Weather on mobile